sensor_id;sensor_type;location;lat;lon;timestamp;pressure;altitude;pressure_sealevel;temperature;humidity
59103;BME280;43999;51.660;5.616;2023-06-26T00:00:12;101004.78;;;25.19;76.29
59103;BME280;43999;51.660;5.616;2023-06-26T00:02:40;101003.09;;;25.18;76.71
59103;BME280;43999;51.660;5.616;2023-06-26T00:05:08;100999.22;;;25.21;76.92
59103;BME280;43999;51.660;5.616;2023-06-26T00:07:35;101001.22;;;25.19;77.36
59103;BME280;43999;51.660;5.616;2023-06-26T00:10:04;100991.03;;;25.14;76.71
59103;BME280;43999;51.660;5.616;2023-06-26T00:12:33;100988.22;;;25.08;76.93
59103;BME280;43999;51.660;5.616;2023-06-26T00:15:00;100995.28;;;25.09;76.44
59103;BME280;43999;51.660;5.616;2023-06-26T00:17:27;101005.47;;;25.05;77.53
59103;BME280;43999;51.660;5.616;2023-06-26T00:19:55;101005.34;;;24.98;77.94
59103;BME280;43999;51.660;5.616;2023-06-26T00:22:22;101009.06;;;24.89;77.98
59103;BME280;43999;51.660;5.616;2023-06-26T00:24:49;101004.56;;;24.81;78.91
59103;BME280;43999;51.660;5.616;2023-06-26T00:27:17;100997.22;;;24.75;79.25
59103;BME280;43999;51.660;5.616;2023-06-26T00:29:44;101002.59;;;24.67;79.66
59103;BME280;43999;51.660;5.616;2023-06-26T00:32:11;101004.13;;;24.61;80.10
59103;BME280;43999;51.660;5.616;2023-06-26T00:34:38;101000.28;;;24.56;79.66
59103;BME280;43999;51.660;5.616;2023-06-26T00:37:08;101001.78;;;24.50;80.20
59103;BME280;43999;51.660;5.616;2023-06-26T00:39:35;100990.91;;;24.43;80.45
59103;BME280;43999;51.660;5.616;2023-06-26T00:42:03;100993.94;;;24.40;80.96
59103;BME280;43999;51.660;5.616;2023-06-26T00:44:30;100998.78;;;24.37;80.98
59103;BME280;43999;51.660;5.616;2023-06-26T00:46:57;100992.09;;;24.32;81.39
59103;BME280;43999;51.660;5.616;2023-06-26T00:49:26;100991.59;;;24.29;81.07
59103;BME280;43999;51.660;5.616;2023-06-26T00:51:56;100992.94;;;24.25;80.92
59103;BME280;43999;51.660;5.616;2023-06-26T00:54:23;100999.47;;;24.22;81.01
59103;BME280;43999;51.660;5.616;2023-06-26T00:56:52;100998.13;;;24.18;81.37
59103;BME280;43999;51.660;5.616;2023-06-26T00:59:19;101000.97;;;24.16;81.37
59103;BME280;43999;51.660;5.616;2023-06-26T01:01:47;101002.16;;;24.14;80.81
59103;BME280;43999;51.660;5.616;2023-06-26T01:04:15;100998.97;;;24.10;81.00
59103;BME280;43999;51.660;5.616;2023-06-26T01:06:47;101001.81;;;24.09;80.61
59103;BME280;43999;51.660;5.616;2023-06-26T01:09:18;101002.81;;;24.08;80.99
59103;BME280;43999;51.660;5.616;2023-06-26T01:11:50;101002.47;;;24.03;81.39
59103;BME280;43999;51.660;5.616;2023-06-26T01:14:17;101009.19;;;23.98;81.29
59103;BME280;43999;51.660;5.616;2023-06-26T01:16:45;101003.31;;;23.95;81.34
59103;BME280;43999;51.660;5.616;2023-06-26T01:19:24;101011.00;;;23.90;81.99
59103;BME280;43999;51.660;5.616;2023-06-26T01:28:07;101022.63;;;23.56;82.71
59103;BME280;43999;51.660;5.616;2023-06-26T01:30:43;101016.59;;;23.45;82.55
59103;BME280;43999;51.660;5.616;2023-06-26T01:33:13;101010.69;;;23.34;82.75
59103;BME280;43999;51.660;5.616;2023-06-26T01:35:41;101015.72;;;23.29;82.95
59103;BME280;43999;51.660;5.616;2023-06-26T01:38:18;101023.84;;;23.19;83.55
59103;BME280;43999;51.660;5.616;2023-06-26T01:40:50;101035.34;;;23.11;83.69
59103;BME280;43999;51.660;5.616;2023-06-26T01:58:09;101051.16;;;22.52;83.87
59103;BME280;43999;51.660;5.616;2023-06-26T02:00:37;101056.44;;;22.44;83.50
59103;BME280;43999;51.660;5.616;2023-06-26T02:03:05;101056.25;;;22.37;84.00
59103;BME280;43999;51.660;5.616;2023-06-26T02:05:33;101067.66;;;22.29;84.18
59103;BME280;43999;51.660;5.616;2023-06-26T02:08:01;101057.75;;;22.22;84.68
59103;BME280;43999;51.660;5.616;2023-06-26T02:10:30;101056.00;;;22.12;84.86
59103;BME280;43999;51.660;5.616;2023-06-26T02:12:57;101067.81;;;22.10;85.44
59103;BME280;43999;51.660;5.616;2023-06-26T02:15:25;101066.56;;;22.04;85.99
59103;BME280;43999;51.660;5.616;2023-06-26T02:17:53;101066.19;;;21.99;86.75
59103;BME280;43999;51.660;5.616;2023-06-26T02:20:21;101053.78;;;21.90;87.14
59103;BME280;43999;51.660;5.616;2023-06-26T02:22:48;101055.75;;;21.88;87.39
59103;BME280;43999;51.660;5.616;2023-06-26T02:25:17;101059.72;;;21.83;88.06
59103;BME280;43999;51.660;5.616;2023-06-26T02:27:45;101058.31;;;21.79;89.09
59103;BME280;43999;51.660;5.616;2023-06-26T02:30:12;101058.94;;;21.73;90.02
59103;BME280;43999;51.660;5.616;2023-06-26T02:32:40;101060.22;;;21.69;89.65
59103;BME280;43999;51.660;5.616;2023-06-26T02:35:08;101058.84;;;21.65;90.39
59103;BME280;43999;51.660;5.616;2023-06-26T02:37:39;101051.59;;;21.57;91.02
59103;BME280;43999;51.660;5.616;2023-06-26T02:40:07;101060.56;;;21.56;91.10
59103;BME280;43999;51.660;5.616;2023-06-26T02:42:37;101057.38;;;21.53;91.64
59103;BME280;43999;51.660;5.616;2023-06-26T02:45:05;101059.06;;;21.44;93.01
59103;BME280;43999;51.660;5.616;2023-06-26T02:47:33;101072.69;;;21.41;93.59
59103;BME280;43999;51.660;5.616;2023-06-26T02:50:01;101072.97;;;21.38;93.44
59103;BME280;43999;51.660;5.616;2023-06-26T02:52:42;101076.25;;;21.31;93.29
59103;BME280;43999;51.660;5.616;2023-06-26T02:55:09;101081.72;;;21.30;94.44
59103;BME280;43999;51.660;5.616;2023-06-26T02:57:37;101082.31;;;21.24;94.22
59103;BME280;43999;51.660;5.616;2023-06-26T03:00:05;101091.31;;;21.23;95.19
59103;BME280;43999;51.660;5.616;2023-06-26T03:02:41;101094.41;;;21.18;96.21
59103;BME280;43999;51.660;5.616;2023-06-26T03:05:10;101093.00;;;21.14;97.34
59103;BME280;43999;51.660;5.616;2023-06-26T03:07:40;101088.09;;;21.09;97.54
59103;BME280;43999;51.660;5.616;2023-06-26T03:10:08;101084.06;;;21.05;98.26
59103;BME280;43999;51.660;5.616;2023-06-26T03:12:35;101100.34;;;21.02;98.60
59103;BME280;43999;51.660;5.616;2023-06-26T03:15:03;101103.31;;;20.99;99.11
59103;BME280;43999;51.660;5.616;2023-06-26T03:17:33;101090.13;;;20.98;99.36
59103;BME280;43999;51.660;5.616;2023-06-26T03:20:06;101095.03;;;20.92;99.45
59103;BME280;43999;51.660;5.616;2023-06-26T03:22:45;101097.56;;;20.94;100.00
59103;BME280;43999;51.660;5.616;2023-06-26T03:25:14;101102.47;;;20.89;100.00
59103;BME280;43999;51.660;5.616;2023-06-26T03:27:42;101100.09;;;20.86;100.00
59103;BME280;43999;51.660;5.616;2023-06-26T03:30:11;101102.38;;;20.81;100.00
59103;BME280;43999;51.660;5.616;2023-06-26T03:32:44;101110.66;;;20.77;100.00
59103;BME280;43999;51.660;5.616;2023-06-26T03:35:32;101107.53;;;20.72;100.00
59103;BME280;43999;51.660;5.616;2023-06-26T03:38:19;101096.50;;;20.67;100.00
59103;BME280;43999;51.660;5.616;2023-06-26T03:41:08;101099.41;;;20.64;100.00
59103;BME280;43999;51.660;5.616;2023-06-26T03:43:36;101097.31;;;20.58;100.00
59103;BME280;43999;51.660;5.616;2023-06-26T03:46:37;101099.28;;;20.56;100.00
59103;BME280;43999;51.660;5.616;2023-06-26T03:49:18;101093.09;;;20.55;100.00
59103;BME280;43999;51.660;5.616;2023-06-26T03:52:06;101097.03;;;20.51;100.00
59103;BME280;43999;51.660;5.616;2023-06-26T03:54:34;101099.84;;;20.50;100.00
59103;BME280;43999;51.660;5.616;2023-06-26T03:57:21;101098.44;;;20.46;100.00
59103;BME280;43999;51.660;5.616;2023-06-26T04:00:09;101107.81;;;20.40;100.00
59103;BME280;43999;51.660;5.616;2023-06-26T04:03:02;101115.25;;;20.36;100.00
59103;BME280;43999;51.660;5.616;2023-06-26T04:05:30;101111.19;;;20.32;100.00
59103;BME280;43999;51.660;5.616;2023-06-26T04:08:20;101119.16;;;20.32;100.00
59103;BME280;43999;51.660;5.616;2023-06-26T04:11:07;101118.88;;;20.26;100.00
59103;BME280;43999;51.660;5.616;2023-06-26T04:13:54;101121.81;;;20.22;100.00
59103;BME280;43999;51.660;5.616;2023-06-26T04:16:42;101136.81;;;20.23;100.00
59103;BME280;43999;51.660;5.616;2023-06-26T04:19:30;101142.41;;;20.20;100.00
59103;BME280;43999;51.660;5.616;2023-06-26T04:22:17;101140.03;;;20.17;100.00
59103;BME280;43999;51.660;5.616;2023-06-26T04:25:05;101143.09;;;20.13;100.00
59103;BME280;43999;51.660;5.616;2023-06-26T04:27:52;101159.22;;;20.11;100.00
59103;BME280;43999;51.660;5.616;2023-06-26T04:30:39;101148.84;;;20.08;100.00
59103;BME280;43999;51.660;5.616;2023-06-26T04:33:27;101147.41;;;20.04;100.00
59103;BME280;43999;51.660;5.616;2023-06-26T04:36:15;101149.13;;;20.05;100.00
59103;BME280;43999;51.660;5.616;2023-06-26T04:39:03;101156.09;;;20.06;100.00
59103;BME280;43999;51.660;5.616;2023-06-26T04:41:51;101159.63;;;20.06;100.00
59103;BME280;43999;51.660;5.616;2023-06-26T04:44:39;101160.59;;;20.05;100.00
59103;BME280;43999;51.660;5.616;2023-06-26T04:47:28;101169.53;;;20.04;100.00
59103;BME280;43999;51.660;5.616;2023-06-26T04:50:15;101168.69;;;20.04;100.00
59103;BME280;43999;51.660;5.616;2023-06-26T04:53:05;101171.09;;;20.07;100.00
59103;BME280;43999;51.660;5.616;2023-06-26T04:55:53;101181.31;;;20.12;100.00
59103;BME280;43999;51.660;5.616;2023-06-26T04:58:40;101179.34;;;20.14;100.00
59103;BME280;43999;51.660;5.616;2023-06-26T05:01:27;101186.50;;;20.13;100.00
59103;BME280;43999;51.660;5.616;2023-06-26T05:04:16;101185.66;;;20.13;100.00
59103;BME280;43999;51.660;5.616;2023-06-26T05:07:04;101193.25;;;20.17;100.00
59103;BME280;43999;51.660;5.616;2023-06-26T05:09:52;101191.28;;;20.19;100.00
59103;BME280;43999;51.660;5.616;2023-06-26T05:12:39;101199.00;;;20.22;100.00
59103;BME280;43999;51.660;5.616;2023-06-26T05:15:26;101191.84;;;20.23;100.00
59103;BME280;43999;51.660;5.616;2023-06-26T05:18:14;101205.72;;;20.27;100.00
59103;BME280;43999;51.660;5.616;2023-06-26T05:21:02;101207.53;;;20.26;100.00
59103;BME280;43999;51.660;5.616;2023-06-26T05:23:52;101203.34;;;20.33;100.00
59103;BME280;43999;51.660;5.616;2023-06-26T05:26:43;101208.41;;;20.36;100.00
59103;BME280;43999;51.660;5.616;2023-06-26T05:29:32;101203.75;;;20.38;100.00
59103;BME280;43999;51.660;5.616;2023-06-26T05:32:24;101211.75;;;20.38;100.00
59103;BME280;43999;51.660;5.616;2023-06-26T05:35:13;101215.13;;;20.40;100.00
59103;BME280;43999;51.660;5.616;2023-06-26T05:38:01;101215.84;;;20.42;100.00
59103;BME280;43999;51.660;5.616;2023-06-26T05:40:49;101213.44;;;20.39;100.00
59103;BME280;43999;51.660;5.616;2023-06-26T05:43:37;101222.72;;;20.45;100.00
59103;BME280;43999;51.660;5.616;2023-06-26T05:46:24;101235.88;;;20.47;100.00
59103;BME280;43999;51.660;5.616;2023-06-26T05:49:11;101233.91;;;20.49;100.00
59103;BME280;43999;51.660;5.616;2023-06-26T05:52:01;101238.28;;;20.50;100.00
59103;BME280;43999;51.660;5.616;2023-06-26T05:54:49;101243.44;;;20.51;100.00
59103;BME280;43999;51.660;5.616;2023-06-26T05:57:38;101242.72;;;20.49;100.00
59103;BME280;43999;51.660;5.616;2023-06-26T06:00:29;101252.81;;;20.46;100.00
59103;BME280;43999;51.660;5.616;2023-06-26T06:03:17;101250.28;;;20.44;100.00
59103;BME280;43999;51.660;5.616;2023-06-26T06:06:05;101254.66;;;20.45;100.00
59103;BME280;43999;51.660;5.616;2023-06-26T06:08:52;101254.25;;;20.50;100.00
59103;BME280;43999;51.660;5.616;2023-06-26T06:11:40;101255.22;;;20.49;100.00
59103;BME280;43999;51.660;5.616;2023-06-26T06:14:28;101262.34;;;20.48;100.00
59103;BME280;43999;51.660;5.616;2023-06-26T06:17:15;101269.34;;;20.49;100.00
59103;BME280;43999;51.660;5.616;2023-06-26T06:20:03;101276.50;;;20.49;100.00
59103;BME280;43999;51.660;5.616;2023-06-26T06:22:51;101279.84;;;20.51;100.00
59103;BME280;43999;51.660;5.616;2023-06-26T06:25:38;101281.16;;;20.56;100.00
59103;BME280;43999;51.660;5.616;2023-06-26T06:28:26;101293.06;;;20.62;100.00
59103;BME280;43999;51.660;5.616;2023-06-26T06:31:13;101283.66;;;20.58;100.00
59103;BME280;43999;51.660;5.616;2023-06-26T06:34:00;101291.25;;;20.63;100.00
59103;BME280;43999;51.660;5.616;2023-06-26T06:36:48;101296.88;;;20.69;100.00
59103;BME280;43999;51.660;5.616;2023-06-26T06:39:37;101292.97;;;20.73;100.00
59103;BME280;43999;51.660;5.616;2023-06-26T06:42:24;101289.91;;;20.78;100.00
59103;BME280;43999;51.660;5.616;2023-06-26T06:45:11;101290.03;;;20.86;100.00
59103;BME280;43999;51.660;5.616;2023-06-26T06:47:59;101295.13;;;20.99;100.00
59103;BME280;43999;51.660;5.616;2023-06-26T06:50:48;101305.75;;;21.09;100.00
59103;BME280;43999;51.660;5.616;2023-06-26T06:53:35;101314.84;;;21.16;100.00
59103;BME280;43999;51.660;5.616;2023-06-26T06:56:23;101316.56;;;21.17;100.00
59103;BME280;43999;51.660;5.616;2023-06-26T06:59:10;101318.66;;;21.13;100.00
59103;BME280;43999;51.660;5.616;2023-06-26T07:01:57;101327.91;;;21.19;100.00
59103;BME280;43999;51.660;5.616;2023-06-26T07:04:44;101321.16;;;21.35;100.00
59103;BME280;43999;51.660;5.616;2023-06-26T07:07:33;101332.81;;;21.53;100.00
59103;BME280;43999;51.660;5.616;2023-06-26T07:10:21;101337.16;;;21.64;99.25
59103;BME280;43999;51.660;5.616;2023-06-26T07:13:09;101342.34;;;21.65;100.00
59103;BME280;43999;51.660;5.616;2023-06-26T07:15:56;101344.44;;;21.72;99.24
59103;BME280;43999;51.660;5.616;2023-06-26T07:18:43;101354.81;;;21.75;99.29
59103;BME280;43999;51.660;5.616;2023-06-26T07:21:31;101349.94;;;21.80;98.66
59103;BME280;43999;51.660;5.616;2023-06-26T07:24:18;101347.50;;;21.87;98.09
59103;BME280;43999;51.660;5.616;2023-06-26T07:27:06;101353.38;;;21.90;95.82
59103;BME280;43999;51.660;5.616;2023-06-26T07:29:54;101367.84;;;21.97;96.69
59103;BME280;43999;51.660;5.616;2023-06-26T07:32:41;101370.91;;;22.12;96.77
59103;BME280;43999;51.660;5.616;2023-06-26T07:35:29;101375.91;;;22.25;96.44
59103;BME280;43999;51.660;5.616;2023-06-26T07:38:17;101371.72;;;22.32;95.95
59103;BME280;43999;51.660;5.616;2023-06-26T07:41:04;101367.81;;;22.45;95.15
59103;BME280;43999;51.660;5.616;2023-06-26T07:43:51;101371.06;;;22.48;95.08
59103;BME280;43999;51.660;5.616;2023-06-26T07:46:38;101375.41;;;22.49;94.08
59103;BME280;43999;51.660;5.616;2023-06-26T07:49:26;101379.69;;;22.60;92.18
59103;BME280;43999;51.660;5.616;2023-06-26T07:52:15;101386.28;;;22.66;92.08
59103;BME280;43999;51.660;5.616;2023-06-26T07:55:03;101383.53;;;22.58;92.23
59103;BME280;43999;51.660;5.616;2023-06-26T07:57:50;101386.78;;;22.51;92.89
59103;BME280;43999;51.660;5.616;2023-06-26T08:00:40;101391.13;;;22.52;93.88
59103;BME280;43999;51.660;5.616;2023-06-26T08:03:28;101399.72;;;22.56;93.37
59103;BME280;43999;51.660;5.616;2023-06-26T08:06:22;101394.97;;;22.40;94.03
59103;BME280;43999;51.660;5.616;2023-06-26T08:09:09;101397.19;;;22.45;94.64
59103;BME280;43999;51.660;5.616;2023-06-26T08:11:57;101395.59;;;22.34;94.47
59103;BME280;43999;51.660;5.616;2023-06-26T08:14:45;101402.81;;;22.51;95.08
59103;BME280;43999;51.660;5.616;2023-06-26T08:17:32;101396.81;;;22.95;92.62
59103;BME280;43999;51.660;5.616;2023-06-26T08:20:19;101404.28;;;23.37;91.18
59103;BME280;43999;51.660;5.616;2023-06-26T08:23:07;101407.13;;;23.98;85.61
59103;BME280;43999;51.660;5.616;2023-06-26T08:25:55;101404.22;;;24.44;80.64
59103;BME280;43999;51.660;5.616;2023-06-26T08:28:45;101408.81;;;24.94;75.99
59103;BME280;43999;51.660;5.616;2023-06-26T08:31:33;101410.53;;;25.20;73.03
59103;BME280;43999;51.660;5.616;2023-06-26T08:34:21;101420.53;;;25.10;66.05
59103;BME280;43999;51.660;5.616;2023-06-26T08:37:08;101420.34;;;24.86;64.95
59103;BME280;43999;51.660;5.616;2023-06-26T08:39:56;101423.53;;;24.90;63.73
59103;BME280;43999;51.660;5.616;2023-06-26T08:42:43;101416.53;;;25.14;63.76
59103;BME280;43999;51.660;5.616;2023-06-26T08:45:30;101422.97;;;25.29;64.31
59103;BME280;43999;51.660;5.616;2023-06-26T08:48:18;101426.16;;;25.57;63.48
59103;BME280;43999;51.660;5.616;2023-06-26T08:51:13;101436.22;;;25.88;61.48
59103;BME280;43999;51.660;5.616;2023-06-26T08:54:09;101431.03;;;26.20;56.60
59103;BME280;43999;51.660;5.616;2023-06-26T08:57:02;101440.03;;;26.43;55.22
59103;BME280;43999;51.660;5.616;2023-06-26T08:59:52;101449.75;;;26.44;56.55
59103;BME280;43999;51.660;5.616;2023-06-26T09:02:41;101446.66;;;26.64;52.58
59103;BME280;43999;51.660;5.616;2023-06-26T09:05:31;101432.91;;;26.67;51.96
59103;BME280;43999;51.660;5.616;2023-06-26T09:08:19;101450.72;;;26.68;50.84
59103;BME280;43999;51.660;5.616;2023-06-26T09:11:06;101454.53;;;26.74;51.85
59103;BME280;43999;51.660;5.616;2023-06-26T09:13:55;101454.88;;;26.79;52.55
59103;BME280;43999;51.660;5.616;2023-06-26T09:16:43;101460.84;;;26.97;50.12
59103;BME280;43999;51.660;5.616;2023-06-26T09:19:30;101465.00;;;27.00;46.40
59103;BME280;43999;51.660;5.616;2023-06-26T09:22:21;101471.31;;;26.84;48.91
59103;BME280;43999;51.660;5.616;2023-06-26T09:25:10;101468.09;;;26.89;49.37
59103;BME280;43999;51.660;5.616;2023-06-26T09:27:59;101470.56;;;26.98;49.71
59103;BME280;43999;51.660;5.616;2023-06-26T09:30:46;101459.91;;;26.82;50.99
59103;BME280;43999;51.660;5.616;2023-06-26T09:33:36;101478.22;;;26.78;48.63
59103;BME280;43999;51.660;5.616;2023-06-26T09:36:28;101464.56;;;26.40;48.42
59103;BME280;43999;51.660;5.616;2023-06-26T09:39:25;101476.53;;;26.21;50.06
59103;BME280;43999;51.660;5.616;2023-06-26T09:42:14;101485.38;;;26.30;49.28
59103;BME280;43999;51.660;5.616;2023-06-26T09:45:02;101481.50;;;26.41;47.60
59103;BME280;43999;51.660;5.616;2023-06-26T09:47:50;101496.78;;;26.48;46.34
59103;BME280;43999;51.660;5.616;2023-06-26T09:50:42;101496.22;;;26.61;46.60
59103;BME280;43999;51.660;5.616;2023-06-26T09:53:48;101502.94;;;26.82;46.30
59103;BME280;43999;51.660;5.616;2023-06-26T09:56:36;101508.03;;;27.00;46.32
59103;BME280;43999;51.660;5.616;2023-06-26T09:59:23;101503.53;;;27.00;46.44
59103;BME280;43999;51.660;5.616;2023-06-26T10:02:11;101505.16;;;26.54;47.36
59103;BME280;43999;51.660;5.616;2023-06-26T10:04:59;101512.41;;;26.28;47.57
59103;BME280;43999;51.660;5.616;2023-06-26T10:07:47;101508.22;;;26.34;47.91
59103;BME280;43999;51.660;5.616;2023-06-26T10:10:37;101507.06;;;25.95;48.46
59103;BME280;43999;51.660;5.616;2023-06-26T10:13:31;101516.25;;;25.52;49.38
59103;BME280;43999;51.660;5.616;2023-06-26T10:16:26;101516.38;;;25.42;49.35
59103;BME280;43999;51.660;5.616;2023-06-26T10:19:19;101520.47;;;25.71;48.87
59103;BME280;43999;51.660;5.616;2023-06-26T10:22:18;101519.81;;;26.10;47.74
59103;BME280;43999;51.660;5.616;2023-06-26T10:25:09;101527.66;;;26.44;46.64
59103;BME280;43999;51.660;5.616;2023-06-26T10:28:00;101534.22;;;26.67;46.07
59103;BME280;43999;51.660;5.616;2023-06-26T10:30:51;101529.81;;;26.82;41.90
59103;BME280;43999;51.660;5.616;2023-06-26T10:33:41;101528.94;;;26.90;42.16
59103;BME280;43999;51.660;5.616;2023-06-26T10:36:31;101535.28;;;27.05;40.94
59103;BME280;43999;51.660;5.616;2023-06-26T10:39:18;101528.50;;;27.09;41.11
59103;BME280;43999;51.660;5.616;2023-06-26T10:42:09;101529.84;;;27.13;39.52
59103;BME280;43999;51.660;5.616;2023-06-26T10:45:15;101530.13;;;27.27;37.93
59103;BME280;43999;51.660;5.616;2023-06-26T10:48:04;101540.69;;;27.36;37.54
59103;BME280;43999;51.660;5.616;2023-06-26T10:50:54;101550.88;;;27.49;36.49
59103;BME280;43999;51.660;5.616;2023-06-26T10:53:41;101558.75;;;27.59;36.12
59103;BME280;43999;51.660;5.616;2023-06-26T10:56:44;101552.31;;;27.60;36.04
59103;BME280;43999;51.660;5.616;2023-06-26T10:59:34;101551.59;;;27.66;36.56
59103;BME280;43999;51.660;5.616;2023-06-26T11:02:26;101543.16;;;27.69;35.45
59103;BME280;43999;51.660;5.616;2023-06-26T11:05:27;101545.78;;;27.78;34.65
59103;BME280;43999;51.660;5.616;2023-06-26T11:08:16;101554.41;;;27.73;36.02
59103;BME280;43999;51.660;5.616;2023-06-26T11:11:06;101553.00;;;27.62;35.01
59103;BME280;43999;51.660;5.616;2023-06-26T11:13:54;101559.66;;;27.43;35.14
59103;BME280;43999;51.660;5.616;2023-06-26T11:16:45;101567.25;;;27.40;34.66
59103;BME280;43999;51.660;5.616;2023-06-26T11:19:33;101565.38;;;27.40;36.49
59103;BME280;43999;51.660;5.616;2023-06-26T11:22:22;101562.50;;;27.50;36.81
59103;BME280;43999;51.660;5.616;2023-06-26T11:25:12;101561.91;;;27.63;34.58
59103;BME280;43999;51.660;5.616;2023-06-26T11:27:59;101567.88;;;27.50;36.78
59103;BME280;43999;51.660;5.616;2023-06-26T11:30:46;101574.84;;;27.28;37.91
59103;BME280;43999;51.660;5.616;2023-06-26T11:33:34;101575.53;;;27.22;37.70
59103;BME280;43999;51.660;5.616;2023-06-26T11:36:24;101578.25;;;27.13;37.89
59103;BME280;43999;51.660;5.616;2023-06-26T11:39:12;101583.16;;;27.01;38.72
59103;BME280;43999;51.660;5.616;2023-06-26T11:42:00;101577.34;;;26.90;38.15
59103;BME280;43999;51.660;5.616;2023-06-26T11:44:48;101589.81;;;26.66;37.00
59103;BME280;43999;51.660;5.616;2023-06-26T11:47:39;101589.81;;;26.41;37.94
59103;BME280;43999;51.660;5.616;2023-06-26T11:50:27;101602.75;;;26.29;37.36
59103;BME280;43999;51.660;5.616;2023-06-26T11:53:15;101604.44;;;26.06;37.71
59103;BME280;43999;51.660;5.616;2023-06-26T11:56:11;101609.25;;;25.86;40.51
59103;BME280;43999;51.660;5.616;2023-06-26T11:59:10;101609.91;;;25.80;41.78
59103;BME280;43999;51.660;5.616;2023-06-26T12:01:59;101610.66;;;25.55;41.60
59103;BME280;43999;51.660;5.616;2023-06-26T12:04:47;101631.34;;;25.29;43.57
59103;BME280;43999;51.660;5.616;2023-06-26T12:07:36;101614.34;;;25.20;44.98
59103;BME280;43999;51.660;5.616;2023-06-26T12:10:25;101619.28;;;25.06;45.24
59103;BME280;43999;51.660;5.616;2023-06-26T12:13:14;101620.44;;;24.96;45.46
59103;BME280;43999;51.660;5.616;2023-06-26T12:16:01;101617.91;;;24.94;44.25
59103;BME280;43999;51.660;5.616;2023-06-26T12:18:49;101627.84;;;25.02;45.03
59103;BME280;43999;51.660;5.616;2023-06-26T12:24:27;101629.94;;;25.24;44.51
59103;BME280;43999;51.660;5.616;2023-06-26T12:27:17;101639.41;;;25.29;42.16
59103;BME280;43999;51.660;5.616;2023-06-26T12:30:07;101640.41;;;25.36;42.40
59103;BME280;43999;51.660;5.616;2023-06-26T12:32:55;101628.88;;;25.44;41.97
59103;BME280;43999;51.660;5.616;2023-06-26T12:35:43;101639.09;;;25.40;43.68
59103;BME280;43999;51.660;5.616;2023-06-26T12:38:33;101631.25;;;25.47;40.95
59103;BME280;43999;51.660;5.616;2023-06-26T12:41:24;101624.06;;;25.47;41.92
59103;BME280;43999;51.660;5.616;2023-06-26T12:47:06;101632.28;;;26.05;37.92
59103;BME280;43999;51.660;5.616;2023-06-26T12:49:55;101628.94;;;26.19;38.04
59103;BME280;43999;51.660;5.616;2023-06-26T12:52:43;101627.09;;;26.44;38.66
59103;BME280;43999;51.660;5.616;2023-06-26T12:55:30;101631.13;;;26.48;38.33
59103;BME280;43999;51.660;5.616;2023-06-26T12:58:19;101621.06;;;26.34;40.25
59103;BME280;43999;51.660;5.616;2023-06-26T13:01:07;101637.69;;;26.29;41.43
59103;BME280;43999;51.660;5.616;2023-06-26T13:04:02;101634.34;;;26.36;40.89
59103;BME280;43999;51.660;5.616;2023-06-26T13:06:51;101624.41;;;26.69;39.26
59103;BME280;43999;51.660;5.616;2023-06-26T13:09:42;101635.09;;;27.10;40.59
59103;BME280;43999;51.660;5.616;2023-06-26T13:12:30;101643.84;;;27.04;39.99
59103;BME280;43999;51.660;5.616;2023-06-26T13:15:18;101629.63;;;26.54;40.86
59103;BME280;43999;51.660;5.616;2023-06-26T13:18:05;101638.19;;;26.41;41.95
59103;BME280;43999;51.660;5.616;2023-06-26T13:20:52;101641.88;;;26.48;40.15
59103;BME280;43999;51.660;5.616;2023-06-26T13:23:40;101642.22;;;26.29;38.73
59103;BME280;43999;51.660;5.616;2023-06-26T13:26:28;101649.09;;;26.40;38.23
59103;BME280;43999;51.660;5.616;2023-06-26T13:29:23;101651.94;;;26.14;38.20
59103;BME280;43999;51.660;5.616;2023-06-26T13:32:11;101643.28;;;25.85;38.61
59103;BME280;43999;51.660;5.616;2023-06-26T13:34:58;101660.38;;;25.76;39.58
59103;BME280;43999;51.660;5.616;2023-06-26T13:37:45;101663.00;;;25.59;39.49
59103;BME280;43999;51.660;5.616;2023-06-26T13:40:34;101658.44;;;25.52;39.17
59103;BME280;43999;51.660;5.616;2023-06-26T13:43:21;101656.41;;;25.97;39.43
59103;BME280;43999;51.660;5.616;2023-06-26T13:46:09;101655.81;;;26.44;39.12
59103;BME280;43999;51.660;5.616;2023-06-26T13:48:56;101661.53;;;26.90;38.71
59103;BME280;43999;51.660;5.616;2023-06-26T13:51:44;101646.81;;;27.26;37.72
59103;BME280;43999;51.660;5.616;2023-06-26T13:54:37;101660.94;;;27.76;34.85
59103;BME280;43999;51.660;5.616;2023-06-26T13:57:28;101665.03;;;28.03;35.69
59103;BME280;43999;51.660;5.616;2023-06-26T14:00:18;101666.44;;;27.82;34.66
59103;BME280;43999;51.660;5.616;2023-06-26T14:03:08;101662.22;;;27.88;35.12
59103;BME280;43999;51.660;5.616;2023-06-26T14:05:56;101669.59;;;27.94;35.82
59103;BME280;43999;51.660;5.616;2023-06-26T14:08:44;101675.03;;;27.86;36.46
59103;BME280;43999;51.660;5.616;2023-06-26T14:11:31;101667.06;;;27.93;36.19
59103;BME280;43999;51.660;5.616;2023-06-26T14:14:19;101678.44;;;27.80;35.41
59103;BME280;43999;51.660;5.616;2023-06-26T14:17:06;101675.13;;;28.01;35.44
59103;BME280;43999;51.660;5.616;2023-06-26T14:19:56;101676.38;;;28.13;35.60
59103;BME280;43999;51.660;5.616;2023-06-26T14:22:44;101685.00;;;28.08;36.27
59103;BME280;43999;51.660;5.616;2023-06-26T14:25:32;101686.44;;;28.19;36.66
59103;BME280;43999;51.660;5.616;2023-06-26T14:28:19;101694.25;;;28.37;34.37
59103;BME280;43999;51.660;5.616;2023-06-26T14:31:06;101687.06;;;28.30;32.68
59103;BME280;43999;51.660;5.616;2023-06-26T14:33:54;101694.91;;;28.16;33.22
59103;BME280;43999;51.660;5.616;2023-06-26T14:36:42;101687.97;;;27.82;33.82
59103;BME280;43999;51.660;5.616;2023-06-26T14:39:30;101675.84;;;27.55;34.84